sensor_id;sensor_type;location;lat;lon;timestamp;temperature;humidity
68257;DHT22;55069;51.568;4.656;2022-11-15T00:00:44;7.99;93.93
68257;DHT22;55069;51.568;4.656;2022-11-15T00:03:28;7.97;93.93
68257;DHT22;55069;51.568;4.656;2022-11-15T00:06:12;7.99;93.94
68257;DHT22;55069;51.568;4.656;2022-11-15T00:09:00;8.05;94.03
68257;DHT22;55069;51.568;4.656;2022-11-15T00:11:44;8.04;94.12
68257;DHT22;55069;51.568;4.656;2022-11-15T00:14:28;8.15;94.02
68257;DHT22;55069;51.568;4.656;2022-11-15T00:17:12;8.14;93.83
68257;DHT22;55069;51.568;4.656;2022-11-15T00:19:56;8.16;93.79
68257;DHT22;55069;51.568;4.656;2022-11-15T00:22:40;8.15;93.78
68257;DHT22;55069;51.568;4.656;2022-11-15T00:25:24;8.20;93.78
68257;DHT22;55069;51.568;4.656;2022-11-15T00:28:09;8.29;93.67
68257;DHT22;55069;51.568;4.656;2022-11-15T00:30:53;8.29;93.55
68257;DHT22;55069;51.568;4.656;2022-11-15T00:33:37;8.33;93.60
68257;DHT22;55069;51.568;4.656;2022-11-15T00:36:21;8.36;93.65
68257;DHT22;55069;51.568;4.656;2022-11-15T00:39:05;8.38;93.62
68257;DHT22;55069;51.568;4.656;2022-11-15T00:41:49;8.45;93.66
68257;DHT22;55069;51.568;4.656;2022-11-15T00:44:33;8.48;93.65
68257;DHT22;55069;51.568;4.656;2022-11-15T00:47:17;8.46;93.63
68257;DHT22;55069;51.568;4.656;2022-11-15T00:50:02;8.52;93.61
68257;DHT22;55069;51.568;4.656;2022-11-15T00:52:46;8.54;93.50
68257;DHT22;55069;51.568;4.656;2022-11-15T00:55:30;8.63;93.51
68257;DHT22;55069;51.568;4.656;2022-11-15T00:58:14;8.67;93.45
68257;DHT22;55069;51.568;4.656;2022-11-15T01:01:13;8.66;93.41
68257;DHT22;55069;51.568;4.656;2022-11-15T01:03:57;8.69;93.35
68257;DHT22;55069;51.568;4.656;2022-11-15T01:06:41;8.70;93.30
68257;DHT22;55069;51.568;4.656;2022-11-15T01:09:25;8.74;93.49
68257;DHT22;55069;51.568;4.656;2022-11-15T01:12:09;8.79;93.56
68257;DHT22;55069;51.568;4.656;2022-11-15T01:14:53;8.81;93.66
68257;DHT22;55069;51.568;4.656;2022-11-15T01:17:37;8.85;93.62
68257;DHT22;55069;51.568;4.656;2022-11-15T01:20:21;8.90;93.64
68257;DHT22;55069;51.568;4.656;2022-11-15T01:23:05;8.92;93.67
68257;DHT22;55069;51.568;4.656;2022-11-15T01:25:49;8.94;93.67
68257;DHT22;55069;51.568;4.656;2022-11-15T01:28:34;9.03;93.98
68257;DHT22;55069;51.568;4.656;2022-11-15T01:31:20;9.07;94.00
68257;DHT22;55069;51.568;4.656;2022-11-15T01:34:04;9.12;94.03
68257;DHT22;55069;51.568;4.656;2022-11-15T01:36:48;9.17;94.17
68257;DHT22;55069;51.568;4.656;2022-11-15T01:39:32;9.22;94.10
68257;DHT22;55069;51.568;4.656;2022-11-15T01:42:17;9.29;94.03
68257;DHT22;55069;51.568;4.656;2022-11-15T01:45:02;9.32;94.00
68257;DHT22;55069;51.568;4.656;2022-11-15T01:47:49;9.40;93.89
68257;DHT22;55069;51.568;4.656;2022-11-15T01:50:34;9.48;93.85
68257;DHT22;55069;51.568;4.656;2022-11-15T01:53:21;9.50;93.75
68257;DHT22;55069;51.568;4.656;2022-11-15T01:56:11;9.53;93.83
68257;DHT22;55069;51.568;4.656;2022-11-15T01:58:58;9.57;93.77
68257;DHT22;55069;51.568;4.656;2022-11-15T02:01:44;9.59;94.08
68257;DHT22;55069;51.568;4.656;2022-11-15T02:04:32;9.63;94.12
68257;DHT22;55069;51.568;4.656;2022-11-15T02:07:19;9.67;94.11
68257;DHT22;55069;51.568;4.656;2022-11-15T02:10:08;9.75;94.00
68257;DHT22;55069;51.568;4.656;2022-11-15T02:12:53;9.76;93.90
68257;DHT22;55069;51.568;4.656;2022-11-15T02:15:46;9.84;93.88
68257;DHT22;55069;51.568;4.656;2022-11-15T02:18:39;9.80;94.03
68257;DHT22;55069;51.568;4.656;2022-11-15T02:21:42;9.91;94.14
68257;DHT22;55069;51.568;4.656;2022-11-15T02:27:53;9.96;94.23
68257;DHT22;55069;51.568;4.656;2022-11-15T02:30:42;10.01;94.35
68257;DHT22;55069;51.568;4.656;2022-11-15T02:33:35;10.00;94.23
68257;DHT22;55069;51.568;4.656;2022-11-15T02:39:41;10.04;94.32
68257;DHT22;55069;51.568;4.656;2022-11-15T02:42:34;10.10;94.42
68257;DHT22;55069;51.568;4.656;2022-11-15T02:45:46;10.15;94.33
68257;DHT22;55069;51.568;4.656;2022-11-15T02:48:32;10.13;94.34
68257;DHT22;55069;51.568;4.656;2022-11-15T02:51:18;10.20;94.50
68257;DHT22;55069;51.568;4.656;2022-11-15T02:54:02;10.13;94.47
68257;DHT22;55069;51.568;4.656;2022-11-15T02:56:46;10.20;94.50
68257;DHT22;55069;51.568;4.656;2022-11-15T03:03:12;10.14;94.57
68257;DHT22;55069;51.568;4.656;2022-11-15T03:06:24;10.20;94.68
68257;DHT22;55069;51.568;4.656;2022-11-15T03:09:32;10.17;94.75
68257;DHT22;55069;51.568;4.656;2022-11-15T03:12:25;10.22;94.96
68257;DHT22;55069;51.568;4.656;2022-11-15T03:15:21;10.27;94.97
68257;DHT22;55069;51.568;4.656;2022-11-15T03:18:33;10.30;94.97
68257;DHT22;55069;51.568;4.656;2022-11-15T03:21:20;10.28;95.01
68257;DHT22;55069;51.568;4.656;2022-11-15T03:24:07;10.24;94.97
68257;DHT22;55069;51.568;4.656;2022-11-15T03:26:53;10.20;94.92
68257;DHT22;55069;51.568;4.656;2022-11-15T03:29:42;10.15;95.00
68257;DHT22;55069;51.568;4.656;2022-11-15T03:32:31;10.08;95.04
68257;DHT22;55069;51.568;4.656;2022-11-15T03:35:22;10.07;95.18
68257;DHT22;55069;51.568;4.656;2022-11-15T03:38:23;10.08;95.31
68257;DHT22;55069;51.568;4.656;2022-11-15T03:41:17;10.07;95.29
68257;DHT22;55069;51.568;4.656;2022-11-15T03:44:12;10.08;95.43
68257;DHT22;55069;51.568;4.656;2022-11-15T03:47:04;10.05;95.63
68257;DHT22;55069;51.568;4.656;2022-11-15T03:49:58;10.10;95.65
68257;DHT22;55069;51.568;4.656;2022-11-15T03:52:46;10.11;95.64
68257;DHT22;55069;51.568;4.656;2022-11-15T03:55:32;10.14;95.75
68257;DHT22;55069;51.568;4.656;2022-11-15T03:58:16;10.14;95.72
68257;DHT22;55069;51.568;4.656;2022-11-15T04:01:00;10.13;95.66
68257;DHT22;55069;51.568;4.656;2022-11-15T04:03:44;10.20;95.72
68257;DHT22;55069;51.568;4.656;2022-11-15T04:06:28;10.28;95.64
68257;DHT22;55069;51.568;4.656;2022-11-15T04:09:12;10.24;95.58
68257;DHT22;55069;51.568;4.656;2022-11-15T04:11:56;10.28;95.69
68257;DHT22;55069;51.568;4.656;2022-11-15T04:14:40;10.31;95.45
68257;DHT22;55069;51.568;4.656;2022-11-15T04:17:50;10.32;95.35
68257;DHT22;55069;51.568;4.656;2022-11-15T04:20:34;10.32;95.32
68257;DHT22;55069;51.568;4.656;2022-11-15T04:23:37;10.31;95.26
68257;DHT22;55069;51.568;4.656;2022-11-15T04:26:40;10.31;95.22
68257;DHT22;55069;51.568;4.656;2022-11-15T04:29:24;10.25;95.15
68257;DHT22;55069;51.568;4.656;2022-11-15T04:32:20;10.14;95.13
68257;DHT22;55069;51.568;4.656;2022-11-15T04:35:05;10.11;95.24
68257;DHT22;55069;51.568;4.656;2022-11-15T04:37:49;10.11;95.35
68257;DHT22;55069;51.568;4.656;2022-11-15T04:40:34;10.15;95.36
68257;DHT22;55069;51.568;4.656;2022-11-15T04:43:18;10.18;95.48
68257;DHT22;55069;51.568;4.656;2022-11-15T04:46:02;10.21;95.60
68257;DHT22;55069;51.568;4.656;2022-11-15T04:48:46;10.18;95.65
68257;DHT22;55069;51.568;4.656;2022-11-15T04:51:30;10.22;95.75
68257;DHT22;55069;51.568;4.656;2022-11-15T04:54:14;10.21;95.74
68257;DHT22;55069;51.568;4.656;2022-11-15T04:56:58;10.21;95.71
68257;DHT22;55069;51.568;4.656;2022-11-15T04:59:42;10.24;95.77
68257;DHT22;55069;51.568;4.656;2022-11-15T05:02:26;10.28;95.76
68257;DHT22;55069;51.568;4.656;2022-11-15T05:05:30;10.31;95.69
68257;DHT22;55069;51.568;4.656;2022-11-15T05:08:14;10.30;95.64
68257;DHT22;55069;51.568;4.656;2022-11-15T05:10:58;10.30;95.58
68257;DHT22;55069;51.568;4.656;2022-11-15T05:13:42;10.24;95.52
68257;DHT22;55069;51.568;4.656;2022-11-15T05:16:27;10.28;95.54
68257;DHT22;55069;51.568;4.656;2022-11-15T05:19:10;10.34;95.44
68257;DHT22;55069;51.568;4.656;2022-11-15T05:21:54;10.30;95.41
68257;DHT22;55069;51.568;4.656;2022-11-15T05:24:39;10.30;95.39
68257;DHT22;55069;51.568;4.656;2022-11-15T05:27:23;10.31;95.29
68257;DHT22;55069;51.568;4.656;2022-11-15T05:30:07;10.32;95.31
68257;DHT22;55069;51.568;4.656;2022-11-15T05:32:51;10.31;95.13
68257;DHT22;55069;51.568;4.656;2022-11-15T05:35:41;10.30;95.06
68257;DHT22;55069;51.568;4.656;2022-11-15T05:38:26;10.27;95.10
68257;DHT22;55069;51.568;4.656;2022-11-15T05:41:10;10.31;95.03
68257;DHT22;55069;51.568;4.656;2022-11-15T05:43:55;10.34;94.86
68257;DHT22;55069;51.568;4.656;2022-11-15T05:46:40;10.31;94.75
68257;DHT22;55069;51.568;4.656;2022-11-15T05:49:30;10.32;94.73
68257;DHT22;55069;51.568;4.656;2022-11-15T05:52:18;10.22;94.55
68257;DHT22;55069;51.568;4.656;2022-11-15T05:55:05;10.22;94.43
68257;DHT22;55069;51.568;4.656;2022-11-15T05:57:50;10.20;94.11
68257;DHT22;55069;51.568;4.656;2022-11-15T06:00:34;10.18;93.96
68257;DHT22;55069;51.568;4.656;2022-11-15T06:03:18;10.04;93.88
68257;DHT22;55069;51.568;4.656;2022-11-15T06:06:02;10.00;93.90
68257;DHT22;55069;51.568;4.656;2022-11-15T06:08:46;9.83;94.02
68257;DHT22;55069;51.568;4.656;2022-11-15T06:11:31;9.79;94.16
68257;DHT22;55069;51.568;4.656;2022-11-15T06:14:15;9.65;94.31
68257;DHT22;55069;51.568;4.656;2022-11-15T06:16:59;9.55;94.38
68257;DHT22;55069;51.568;4.656;2022-11-15T06:19:44;9.45;94.54
68257;DHT22;55069;51.568;4.656;2022-11-15T06:22:28;9.49;94.90
68257;DHT22;55069;51.568;4.656;2022-11-15T06:25:12;9.46;95.06
68257;DHT22;55069;51.568;4.656;2022-11-15T06:27:57;9.49;95.20
68257;DHT22;55069;51.568;4.656;2022-11-15T06:30:41;9.45;95.27
68257;DHT22;55069;51.568;4.656;2022-11-15T06:33:25;9.48;95.42
68257;DHT22;55069;51.568;4.656;2022-11-15T06:36:12;9.50;95.50
68257;DHT22;55069;51.568;4.656;2022-11-15T06:39:01;9.59;95.52
68257;DHT22;55069;51.568;4.656;2022-11-15T06:41:45;9.60;95.52
68257;DHT22;55069;51.568;4.656;2022-11-15T06:44:29;9.67;95.41
68257;DHT22;55069;51.568;4.656;2022-11-15T06:47:13;9.69;95.30
68257;DHT22;55069;51.568;4.656;2022-11-15T06:49:57;9.76;95.22
68257;DHT22;55069;51.568;4.656;2022-11-15T06:52:41;9.80;95.12
68257;DHT22;55069;51.568;4.656;2022-11-15T06:55:25;9.86;94.96
68257;DHT22;55069;51.568;4.656;2022-11-15T06:58:09;9.82;94.66
68257;DHT22;55069;51.568;4.656;2022-11-15T07:00:53;9.84;94.41
68257;DHT22;55069;51.568;4.656;2022-11-15T07:03:39;9.77;94.33
68257;DHT22;55069;51.568;4.656;2022-11-15T07:06:24;9.77;94.17
68257;DHT22;55069;51.568;4.656;2022-11-15T07:09:08;9.72;94.15
68257;DHT22;55069;51.568;4.656;2022-11-15T07:11:52;9.73;94.12
68257;DHT22;55069;51.568;4.656;2022-11-15T07:14:36;9.75;94.08
68257;DHT22;55069;51.568;4.656;2022-11-15T07:17:20;9.69;94.12
68257;DHT22;55069;51.568;4.656;2022-11-15T07:20:04;9.75;94.10
68257;DHT22;55069;51.568;4.656;2022-11-15T07:22:48;9.72;93.90
68257;DHT22;55069;51.568;4.656;2022-11-15T07:25:32;9.73;93.87
68257;DHT22;55069;51.568;4.656;2022-11-15T07:28:16;9.69;93.81
68257;DHT22;55069;51.568;4.656;2022-11-15T07:31:05;9.77;93.74
68257;DHT22;55069;51.568;4.656;2022-11-15T07:33:49;9.83;93.66
68257;DHT22;55069;51.568;4.656;2022-11-15T07:36:33;9.87;93.15
68257;DHT22;55069;51.568;4.656;2022-11-15T07:39:17;9.89;92.49
68257;DHT22;55069;51.568;4.656;2022-11-15T07:42:01;9.87;92.15
68257;DHT22;55069;51.568;4.656;2022-11-15T07:45:04;9.79;92.11
68257;DHT22;55069;51.568;4.656;2022-11-15T07:47:49;9.82;91.94
68257;DHT22;55069;51.568;4.656;2022-11-15T07:50:34;9.75;92.04
68257;DHT22;55069;51.568;4.656;2022-11-15T07:53:18;9.63;92.23
68257;DHT22;55069;51.568;4.656;2022-11-15T07:56:06;9.65;92.33
68257;DHT22;55069;51.568;4.656;2022-11-15T07:58:50;9.63;92.32
68257;DHT22;55069;51.568;4.656;2022-11-15T08:01:34;9.62;92.40
68257;DHT22;55069;51.568;4.656;2022-11-15T08:04:18;9.65;92.39
68257;DHT22;55069;51.568;4.656;2022-11-15T08:07:02;9.70;92.18
68257;DHT22;55069;51.568;4.656;2022-11-15T08:09:46;9.72;92.20
68257;DHT22;55069;51.568;4.656;2022-11-15T08:12:30;9.76;92.20
68257;DHT22;55069;51.568;4.656;2022-11-15T08:15:14;9.82;92.06
68257;DHT22;55069;51.568;4.656;2022-11-15T08:18:00;9.89;91.55
68257;DHT22;55069;51.568;4.656;2022-11-15T08:20:45;10.00;91.45
68257;DHT22;55069;51.568;4.656;2022-11-15T08:23:29;10.05;90.94
68257;DHT22;55069;51.568;4.656;2022-11-15T08:26:14;10.04;91.04
68257;DHT22;55069;51.568;4.656;2022-11-15T08:28:58;10.07;90.87
68257;DHT22;55069;51.568;4.656;2022-11-15T08:31:42;10.05;90.83
68257;DHT22;55069;51.568;4.656;2022-11-15T08:34:26;10.07;90.91
68257;DHT22;55069;51.568;4.656;2022-11-15T08:37:10;10.17;90.61
68257;DHT22;55069;51.568;4.656;2022-11-15T08:39:54;10.11;90.48
68257;DHT22;55069;51.568;4.656;2022-11-15T08:42:38;10.18;90.16
68257;DHT22;55069;51.568;4.656;2022-11-15T08:45:22;10.21;89.78
68257;DHT22;55069;51.568;4.656;2022-11-15T08:48:06;10.17;89.71
68257;DHT22;55069;51.568;4.656;2022-11-15T08:50:56;10.11;89.90
68257;DHT22;55069;51.568;4.656;2022-11-15T08:53:41;10.13;89.72
68257;DHT22;55069;51.568;4.656;2022-11-15T08:56:25;10.18;89.43
68257;DHT22;55069;51.568;4.656;2022-11-15T08:59:10;10.17;89.20
68257;DHT22;55069;51.568;4.656;2022-11-15T09:01:54;10.22;89.08
68257;DHT22;55069;51.568;4.656;2022-11-15T09:04:40;10.25;89.08
68257;DHT22;55069;51.568;4.656;2022-11-15T09:07:25;10.34;88.85
68257;DHT22;55069;51.568;4.656;2022-11-15T09:10:09;10.42;88.61
68257;DHT22;55069;51.568;4.656;2022-11-15T09:12:53;10.49;88.10
68257;DHT22;55069;51.568;4.656;2022-11-15T09:15:37;10.61;87.41
68257;DHT22;55069;51.568;4.656;2022-11-15T09:18:21;10.71;87.47
68257;DHT22;55069;51.568;4.656;2022-11-15T09:21:06;10.75;87.04
68257;DHT22;55069;51.568;4.656;2022-11-15T09:23:51;10.86;87.06
68257;DHT22;55069;51.568;4.656;2022-11-15T09:26:35;10.88;86.67
68257;DHT22;55069;51.568;4.656;2022-11-15T09:29:19;10.88;86.37
68257;DHT22;55069;51.568;4.656;2022-11-15T09:32:04;10.97;86.09
68257;DHT22;55069;51.568;4.656;2022-11-15T09:34:49;11.07;85.36
68257;DHT22;55069;51.568;4.656;2022-11-15T09:37:33;11.17;84.87
68257;DHT22;55069;51.568;4.656;2022-11-15T09:40:17;11.18;84.48
68257;DHT22;55069;51.568;4.656;2022-11-15T09:46:15;11.34;83.95
68257;DHT22;55069;51.568;4.656;2022-11-15T09:49:06;11.35;84.03
68257;DHT22;55069;51.568;4.656;2022-11-15T09:51:53;11.37;83.68
68257;DHT22;55069;51.568;4.656;2022-11-15T09:54:32;11.35;83.71
68257;DHT22;55069;51.568;4.656;2022-11-15T09:57:32;11.45;83.30
68257;DHT22;55069;51.568;4.656;2022-11-15T10:00:19;11.61;83.33
68257;DHT22;55069;51.568;4.656;2022-11-15T10:05:18;11.72;82.17
68257;DHT22;55069;51.568;4.656;2022-11-15T10:07:55;11.72;81.70
68257;DHT22;55069;51.568;4.656;2022-11-15T10:12:49;11.79;82.04
68257;DHT22;55069;51.568;4.656;2022-11-15T10:15:16;11.83;82.09
68257;DHT22;55069;51.568;4.656;2022-11-15T10:20:30;12.05;80.91
68257;DHT22;55069;51.568;4.656;2022-11-15T10:22:59;12.05;80.93
68257;DHT22;55069;51.568;4.656;2022-11-15T10:25:30;12.07;80.79
68257;DHT22;55069;51.568;4.656;2022-11-15T10:28:06;12.12;80.85
68257;DHT22;55069;51.568;4.656;2022-11-15T10:30:40;12.17;80.11
68257;DHT22;55069;51.568;4.656;2022-11-15T10:46:31;12.17;78.99
68257;DHT22;55069;51.568;4.656;2022-11-15T10:49:21;12.13;79.25
68257;DHT22;55069;51.568;4.656;2022-11-15T10:52:14;11.99;79.27
68257;DHT22;55069;51.568;4.656;2022-11-15T10:54:43;11.87;79.01
68257;DHT22;55069;51.568;4.656;2022-11-15T10:57:16;11.93;78.88
68257;DHT22;55069;51.568;4.656;2022-11-15T10:59:48;12.02;78.99
68257;DHT22;55069;51.568;4.656;2022-11-15T11:02:37;12.05;78.77
68257;DHT22;55069;51.568;4.656;2022-11-15T11:05:26;12.17;78.31
68257;DHT22;55069;51.568;4.656;2022-11-15T11:08:04;12.41;78.10
68257;DHT22;55069;51.568;4.656;2022-11-15T11:10:30;12.51;78.25
68257;DHT22;55069;51.568;4.656;2022-11-15T11:13:12;12.77;77.60
68257;DHT22;55069;51.568;4.656;2022-11-15T11:15:39;12.84;76.51
68257;DHT22;55069;51.568;4.656;2022-11-15T11:18:25;12.89;75.78
68257;DHT22;55069;51.568;4.656;2022-11-15T11:21:00;12.82;75.66
68257;DHT22;55069;51.568;4.656;2022-11-15T11:24:03;12.79;76.07
68257;DHT22;55069;51.568;4.656;2022-11-15T11:32:25;12.96;75.65
68257;DHT22;55069;51.568;4.656;2022-11-15T11:37:34;13.03;75.52
68257;DHT22;55069;51.568;4.656;2022-11-15T11:40:10;13.16;74.48
68257;DHT22;55069;51.568;4.656;2022-11-15T11:48:48;13.19;74.81
68257;DHT22;55069;51.568;4.656;2022-11-15T11:52:10;13.33;73.30
68257;DHT22;55069;51.568;4.656;2022-11-15T11:54:53;13.44;73.35
68257;DHT22;55069;51.568;4.656;2022-11-15T12:00:24;13.33;71.91
68257;DHT22;55069;51.568;4.656;2022-11-15T12:03:14;13.43;72.67
68257;DHT22;55069;51.568;4.656;2022-11-15T12:05:46;13.36;71.49
68257;DHT22;55069;51.568;4.656;2022-11-15T12:08:35;13.30;72.66
68257;DHT22;55069;51.568;4.656;2022-11-15T12:11:51;13.23;72.00
68257;DHT22;55069;51.568;4.656;2022-11-15T12:13:59;13.16;71.46
68257;DHT22;55069;51.568;4.656;2022-11-15T12:16:31;13.10;71.43
68257;DHT22;55069;51.568;4.656;2022-11-15T12:19:02;12.96;71.54
68257;DHT22;55069;51.568;4.656;2022-11-15T12:24:24;12.79;72.69
68257;DHT22;55069;51.568;4.656;2022-11-15T12:29:56;12.60;72.31
68257;DHT22;55069;51.568;4.656;2022-11-15T12:32:34;12.55;72.40
68257;DHT22;55069;51.568;4.656;2022-11-15T12:35:03;12.55;71.70
68257;DHT22;55069;51.568;4.656;2022-11-15T12:40:26;12.61;71.93
68257;DHT22;55069;51.568;4.656;2022-11-15T12:45:28;12.75;71.74
68257;DHT22;55069;51.568;4.656;2022-11-15T12:48:44;12.75;71.86
68257;DHT22;55069;51.568;4.656;2022-11-15T12:50:57;12.69;71.59
68257;DHT22;55069;51.568;4.656;2022-11-15T13:06:45;12.77;71.92
68257;DHT22;55069;51.568;4.656;2022-11-15T13:12:08;12.79;72.17
68257;DHT22;55069;51.568;4.656;2022-11-15T13:17:10;12.89;72.72
68257;DHT22;55069;51.568;4.656;2022-11-15T13:19:38;12.93;72.41
68257;DHT22;55069;51.568;4.656;2022-11-15T13:22:09;12.93;72.42
68257;DHT22;55069;51.568;4.656;2022-11-15T13:24:54;12.88;72.15
68257;DHT22;55069;51.568;4.656;2022-11-15T13:27:20;12.82;72.49
68257;DHT22;55069;51.568;4.656;2022-11-15T13:29:46;12.87;72.67
68257;DHT22;55069;51.568;4.656;2022-11-15T13:32:15;12.82;72.83
68257;DHT22;55069;51.568;4.656;2022-11-15T13:34:46;12.81;73.05
68257;DHT22;55069;51.568;4.656;2022-11-15T13:37:28;12.77;73.54
68257;DHT22;55069;51.568;4.656;2022-11-15T13:39:55;12.74;73.93
68257;DHT22;55069;51.568;4.656;2022-11-15T13:42:35;12.68;73.50
68257;DHT22;55069;51.568;4.656;2022-11-15T13:45:03;12.69;73.57
68257;DHT22;55069;51.568;4.656;2022-11-15T13:47:30;12.68;73.71
68257;DHT22;55069;51.568;4.656;2022-11-15T13:49:57;12.71;73.63
68257;DHT22;55069;51.568;4.656;2022-11-15T13:52:26;12.68;73.39
68257;DHT22;55069;51.568;4.656;2022-11-15T13:55:09;12.71;73.50
68257;DHT22;55069;51.568;4.656;2022-11-15T13:57:50;12.72;74.06
68257;DHT22;55069;51.568;4.656;2022-11-15T14:00:39;12.71;74.44
68257;DHT22;55069;51.568;4.656;2022-11-15T14:03:25;12.67;74.65
68257;DHT22;55069;51.568;4.656;2022-11-15T14:06:12;12.71;74.16
68257;DHT22;55069;51.568;4.656;2022-11-15T14:08:40;12.74;74.15
68257;DHT22;55069;51.568;4.656;2022-11-15T14:11:18;12.71;74.44
68257;DHT22;55069;51.568;4.656;2022-11-15T14:16:38;12.68;74.80
68257;DHT22;55069;51.568;4.656;2022-11-15T14:19:06;12.72;74.97
68257;DHT22;55069;51.568;4.656;2022-11-15T14:21:34;12.72;74.77
68257;DHT22;55069;51.568;4.656;2022-11-15T14:24:19;12.69;74.72
68257;DHT22;55069;51.568;4.656;2022-11-15T14:26:47;12.61;75.40
68257;DHT22;55069;51.568;4.656;2022-11-15T14:29:27;12.57;75.76
68257;DHT22;55069;51.568;4.656;2022-11-15T14:32:05;12.53;76.13
68257;DHT22;55069;51.568;4.656;2022-11-15T14:34:32;12.48;76.37
68257;DHT22;55069;51.568;4.656;2022-11-15T14:36:58;12.47;76.47
68257;DHT22;55069;51.568;4.656;2022-11-15T14:39:23;12.47;76.59
68257;DHT22;55069;51.568;4.656;2022-11-15T14:41:50;12.48;76.48
68257;DHT22;55069;51.568;4.656;2022-11-15T14:44:16;12.44;76.83
68257;DHT22;55069;51.568;4.656;2022-11-15T14:46:44;12.47;76.58
68257;DHT22;55069;51.568;4.656;2022-11-15T14:49:09;12.43;76.68
68257;DHT22;55069;51.568;4.656;2022-11-15T14:51:35;12.45;76.61
68257;DHT22;55069;51.568;4.656;2022-11-15T14:54:01;12.44;76.81
68257;DHT22;55069;51.568;4.656;2022-11-15T14:56:26;12.41;77.26
68257;DHT22;55069;51.568;4.656;2022-11-15T14:58:52;12.50;76.90
68257;DHT22;55069;51.568;4.656;2022-11-15T15:01:21;12.41;77.20
68257;DHT22;55069;51.568;4.656;2022-11-15T15:03:48;12.40;77.54
68257;DHT22;55069;51.568;4.656;2022-11-15T15:06:13;12.38;77.50
68257;DHT22;55069;51.568;4.656;2022-11-15T15:08:40;12.40;77.59
68257;DHT22;55069;51.568;4.656;2022-11-15T15:11:16;12.34;77.81
68257;DHT22;55069;51.568;4.656;2022-11-15T15:13:42;12.30;78.23
68257;DHT22;55069;51.568;4.656;2022-11-15T15:16:07;12.29;78.46
68257;DHT22;55069;51.568;4.656;2022-11-15T15:18:33;12.40;78.65
68257;DHT22;55069;51.568;4.656;2022-11-15T15:20:59;12.30;79.48
68257;DHT22;55069;51.568;4.656;2022-11-15T15:23:27;12.30;79.63
68257;DHT22;55069;51.568;4.656;2022-11-15T15:25:56;12.33;79.29
68257;DHT22;55069;51.568;4.656;2022-11-15T15:28:21;12.23;80.59
68257;DHT22;55069;51.568;4.656;2022-11-15T15:30:47;12.13;81.67
68257;DHT22;55069;51.568;4.656;2022-11-15T15:33:12;12.10;81.73
68257;DHT22;55069;51.568;4.656;2022-11-15T15:35:38;12.05;82.45
68257;DHT22;55069;51.568;4.656;2022-11-15T15:38:04;12.03;82.88
68257;DHT22;55069;51.568;4.656;2022-11-15T15:40:31;11.97;83.80
68257;DHT22;55069;51.568;4.656;2022-11-15T15:42:57;11.87;84.64
68257;DHT22;55069;51.568;4.656;2022-11-15T15:45:25;11.83;84.90
68257;DHT22;55069;51.568;4.656;2022-11-15T15:47:51;11.75;85.78
68257;DHT22;55069;51.568;4.656;2022-11-15T15:50:25;11.74;86.08
68257;DHT22;55069;51.568;4.656;2022-11-15T15:52:52;11.65;86.42
68257;DHT22;55069;51.568;4.656;2022-11-15T15:55:19;11.69;86.81
68257;DHT22;55069;51.568;4.656;2022-11-15T15:57:44;11.61;87.36
68257;DHT22;55069;51.568;4.656;2022-11-15T16:00:10;11.54;87.70
68257;DHT22;55069;51.568;4.656;2022-11-15T16:02:39;11.45;88.37
68257;DHT22;55069;51.568;4.656;2022-11-15T16:05:05;11.42;88.97
68257;DHT22;55069;51.568;4.656;2022-11-15T16:07:31;11.41;89.03
68257;DHT22;55069;51.568;4.656;2022-11-15T16:09:57;11.47;89.07
68257;DHT22;55069;51.568;4.656;2022-11-15T16:12:34;11.45;89.20
68257;DHT22;55069;51.568;4.656;2022-11-15T16:15:01;11.44;89.42
68257;DHT22;55069;51.568;4.656;2022-11-15T16:17:32;11.41;89.53
68257;DHT22;55069;51.568;4.656;2022-11-15T16:19:59;11.35;89.93
68257;DHT22;55069;51.568;4.656;2022-11-15T16:22:24;11.38;89.81
68257;DHT22;55069;51.568;4.656;2022-11-15T16:24:50;11.38;90.17
68257;DHT22;55069;51.568;4.656;2022-11-15T16:27:17;11.35;90.21
68257;DHT22;55069;51.568;4.656;2022-11-15T16:29:44;11.37;90.53
68257;DHT22;55069;51.568;4.656;2022-11-15T16:32:10;11.38;90.51
68257;DHT22;55069;51.568;4.656;2022-11-15T16:34:36;11.38;90.67
68257;DHT22;55069;51.568;4.656;2022-11-15T16:37:02;11.35;90.80
68257;DHT22;55069;51.568;4.656;2022-11-15T16:39:28;11.38;90.89
68257;DHT22;55069;51.568;4.656;2022-11-15T16:41:58;11.30;91.21
68257;DHT22;55069;51.568;4.656;2022-11-15T16:44:24;11.34;91.47
68257;DHT22;55069;51.568;4.656;2022-11-15T16:46:50;11.30;91.64
68257;DHT22;55069;51.568;4.656;2022-11-15T16:49:17;11.30;91.73
68257;DHT22;55069;51.568;4.656;2022-11-15T16:51:47;11.32;91.70
68257;DHT22;55069;51.568;4.656;2022-11-15T16:54:13;11.31;91.87
68257;DHT22;55069;51.568;4.656;2022-11-15T16:56:39;11.30;91.87
68257;DHT22;55069;51.568;4.656;2022-11-15T16:59:05;11.28;92.09
68257;DHT22;55069;51.568;4.656;2022-11-15T17:01:35;11.26;92.31
68257;DHT22;55069;51.568;4.656;2022-11-15T17:04:03;11.27;92.32
68257;DHT22;55069;51.568;4.656;2022-11-15T17:06:42;11.28;92.32
68257;DHT22;55069;51.568;4.656;2022-11-15T17:09:25;11.26;92.60
68257;DHT22;55069;51.568;4.656;2022-11-15T17:11:51;11.27;92.45
68257;DHT22;55069;51.568;4.656;2022-11-15T17:14:17;11.28;92.53
68257;DHT22;55069;51.568;4.656;2022-11-15T17:16:43;11.30;92.51
68257;DHT22;55069;51.568;4.656;2022-11-15T17:19:19;11.27;92.65
68257;DHT22;55069;51.568;4.656;2022-11-15T17:21:45;11.30;92.63
68257;DHT22;55069;51.568;4.656;2022-11-15T17:24:11;11.31;92.65
68257;DHT22;55069;51.568;4.656;2022-11-15T17:26:37;11.30;92.69
68257;DHT22;55069;51.568;4.656;2022-11-15T17:29:03;11.34;92.78
68257;DHT22;55069;51.568;4.656;2022-11-15T17:31:33;11.39;92.78
68257;DHT22;55069;51.568;4.656;2022-11-15T17:34:00;11.37;92.68
68257;DHT22;55069;51.568;4.656;2022-11-15T17:36:26;11.41;92.80
68257;DHT22;55069;51.568;4.656;2022-11-15T17:38:51;11.39;92.90
68257;DHT22;55069;51.568;4.656;2022-11-15T17:41:17;11.39;92.89
68257;DHT22;55069;51.568;4.656;2022-11-15T17:43:44;11.39;92.81
68257;DHT22;55069;51.568;4.656;2022-11-15T17:46:17;11.44;93.01
68257;DHT22;55069;51.568;4.656;2022-11-15T17:48:44;11.47;92.87
68257;DHT22;55069;51.568;4.656;2022-11-15T17:51:11;11.42;92.95
68257;DHT22;55069;51.568;4.656;2022-11-15T17:53:39;11.44;92.94
68257;DHT22;55069;51.568;4.656;2022-11-15T17:56:10;11.47;92.97
68257;DHT22;55069;51.568;4.656;2022-11-15T17:58:36;11.42;93.19
68257;DHT22;55069;51.568;4.656;2022-11-15T18:01:11;11.44;93.37
68257;DHT22;55069;51.568;4.656;2022-11-15T18:03:40;11.44;93.34
68257;DHT22;55069;51.568;4.656;2022-11-15T18:06:06;11.47;93.34
68257;DHT22;55069;51.568;4.656;2022-11-15T18:08:34;11.47;93.47
68257;DHT22;55069;51.568;4.656;2022-11-15T18:11:11;11.47;93.60
68257;DHT22;55069;51.568;4.656;2022-11-15T18:13:39;11.48;93.58
68257;DHT22;55069;51.568;4.656;2022-11-15T18:16:09;11.50;93.51
68257;DHT22;55069;51.568;4.656;2022-11-15T18:18:35;11.50;93.55